Sanpo Maru No.5 — JL6343 — position and weather

sailwx.info

Track history (hours):
 
Tides and Currents Weather Stations Pressure Air Temp Water Temp Dewpoint Dewpoint Depression Visibility Wind Speed Wind Dir Waves Ship Positions

Sanpo Maru No.5

Last reported at 2015-Feb-25 02:33 UTC. Time now 2015-Mar-03 00:40 UTC.
Position N 33°51' E 130°24'.

Length 71 m; draft 4.5 m.

Type: Ship. MMSI: 431500283.

Date/timePositionNaut miles runAvg speedWind from/ knotsBaromVisibWave heightAir tempDewpointWater temp
2015-Feb-25 02:33N 33°51' E 130°24'1110.9
2015-Feb-25 01:33N 33°42' E 130°16'8 8.0
2015-Feb-25 00:30N 33°36' E 130°23'0 0.0
2015-Feb-24 23:31N 33°36' E 130°23'1 1.5
2015-Feb-24 22:33N 33°37' E 130°22'0 0.4
2015-Feb-24 21:33N 33°37' E 130°21'0 0.1
2015-Feb-24 20:33N 33°37' E 130°21'0 0.1
2015-Feb-24 19:33N 33°37' E 130°21'0 0.0
2015-Feb-24 18:27N 33°37' E 130°21'0 0.0
2015-Feb-24 17:33N 33°37' E 130°21'4 4.4
2015-Feb-24 16:32N 33°40' E 130°17'1010.0
2015-Feb-24 15:33N 33°49' E 130°20'  
2015-Feb-19 03:15N 34°07' E 135°07'0 0.0
2015-Feb-19 02:27N 34°07' E 135°07'0 0.1
2015-Feb-18 23:27N 34°07' E 135°07'0 0.3
2015-Feb-18 22:08N 34°07' E 135°07'0 0.0
2015-Feb-18 21:23N 34°07' E 135°07'0 0.0
2015-Feb-18 19:23N 34°07' E 135°07'0 0.0
2015-Feb-18 18:14N 34°07' E 135°07'0 0.0
2015-Feb-18 17:05N 34°07' E 135°07'0 0.0
2015-Feb-18 16:08N 34°07' E 135°07'0 0.0
2015-Feb-18 14:14N 34°07' E 135°07'0 0.0
2015-Feb-18 12:20N 34°07' E 135°07'0 0.0
2015-Feb-18 11:29N 34°07' E 135°07'4 1.5
2015-Feb-18 08:31N 34°10' E 135°03'1110.8
2015-Feb-18 07:30N 34°21' E 134°60'1111.5
2015-Feb-18 06:31N 34°32' E 135°02'10 9.9
2015-Feb-18 05:33N 34°38' E 134°53'  
Track history (hours):
 
Tides and Currents Weather Stations Pressure Air Temp Water Temp Dewpoint Dewpoint Depression Visibility Wind Speed Wind Dir Waves Ship Positions

Sanpo Maru No.5

Last reported at 2015-Feb-25 02:33 UTC. Time now 2015-Mar-03 00:40 UTC.
Position N 33°51' E 130°24'.

Length 71 m; draft 4.5 m.

Type: Ship. MMSI: 431500283.

Date/timePositionNaut miles runAvg speedWind from/ knotsBaromVisibWave heightAir tempDewpointWater temp
2015-Feb-25 02:33N 33°51' E 130°24'1110.9
2015-Feb-25 01:33N 33°42' E 130°16'8 8.0
2015-Feb-25 00:30N 33°36' E 130°23'0 0.0
2015-Feb-24 23:31N 33°36' E 130°23'1 1.5
2015-Feb-24 22:33N 33°37' E 130°22'0 0.4
2015-Feb-24 21:33N 33°37' E 130°21'0 0.1
2015-Feb-24 20:33N 33°37' E 130°21'0 0.1
2015-Feb-24 19:33N 33°37' E 130°21'0 0.0
2015-Feb-24 18:27N 33°37' E 130°21'0 0.0
2015-Feb-24 17:33N 33°37' E 130°21'4 4.4
2015-Feb-24 16:32N 33°40' E 130°17'1010.0
2015-Feb-24 15:33N 33°49' E 130°20'  
2015-Feb-19 03:15N 34°07' E 135°07'0 0.0
2015-Feb-19 02:27N 34°07' E 135°07'0 0.1
2015-Feb-18 23:27N 34°07' E 135°07'0 0.3
2015-Feb-18 22:08N 34°07' E 135°07'0 0.0
2015-Feb-18 21:23N 34°07' E 135°07'0 0.0
2015-Feb-18 19:23N 34°07' E 135°07'0 0.0
2015-Feb-18 18:14N 34°07' E 135°07'0 0.0
2015-Feb-18 17:05N 34°07' E 135°07'0 0.0
2015-Feb-18 16:08N 34°07' E 135°07'0 0.0
2015-Feb-18 14:14N 34°07' E 135°07'0 0.0
2015-Feb-18 12:20N 34°07' E 135°07'0 0.0
2015-Feb-18 11:29N 34°07' E 135°07'4 1.5
2015-Feb-18 08:31N 34°10' E 135°03'1110.8
2015-Feb-18 07:30N 34°21' E 134°60'1111.5
2015-Feb-18 06:31N 34°32' E 135°02'10 9.9
2015-Feb-18 05:33N 34°38' E 134°53'  

Dump ship's entire track history